sensor_id;sensor_type;location;lat;lon;timestamp;P1;P2;P0
77515;PMS5003;66627;29.424;-98.496;2024-01-25T00:01:55;17;17;
77515;PMS5003;66627;29.424;-98.496;2024-01-25T00:04:20;15;13;
77515;PMS5003;66627;29.424;-98.496;2024-01-25T00:06:45;15;12;
77515;PMS5003;66627;29.424;-98.496;2024-01-25T00:09:11;20;18;
77515;PMS5003;66627;29.424;-98.496;2024-01-25T00:11:36;20;20;
77515;PMS5003;66627;29.424;-98.496;2024-01-25T00:14:02;17;17;
77515;PMS5003;66627;29.424;-98.496;2024-01-25T00:16:27;16;15;
77515;PMS5003;66627;29.424;-98.496;2024-01-25T00:18:53;20;17;
77515;PMS5003;66627;29.424;-98.496;2024-01-25T00:21:20;17;16;
77515;PMS5003;66627;29.424;-98.496;2024-01-25T00:23:45;22;20;
77515;PMS5003;66627;29.424;-98.496;2024-01-25T00:26:09;15;13;
77515;PMS5003;66627;29.424;-98.496;2024-01-25T00:28:34;14;11;
77515;PMS5003;66627;29.424;-98.496;2024-01-25T00:31:00;16;15;
77515;PMS5003;66627;29.424;-98.496;2024-01-25T00:33:26;17;16;
77515;PMS5003;66627;29.424;-98.496;2024-01-25T00:35:51;12;11;
77515;PMS5003;66627;29.424;-98.496;2024-01-25T00:38:17;14;14;
77515;PMS5003;66627;29.424;-98.496;2024-01-25T00:40:42;16;14;
77515;PMS5003;66627;29.424;-98.496;2024-01-25T00:43:08;12;12;
77515;PMS5003;66627;29.424;-98.496;2024-01-25T00:45:33;13;12;
77515;PMS5003;66627;29.424;-98.496;2024-01-25T00:47:58;15;15;
77515;PMS5003;66627;29.424;-98.496;2024-01-25T00:50:24;15;15;
77515;PMS5003;66627;29.424;-98.496;2024-01-25T00:52:48;16;14;
77515;PMS5003;66627;29.424;-98.496;2024-01-25T00:55:14;17;14;
77515;PMS5003;66627;29.424;-98.496;2024-01-25T00:57:40;16;15;
77515;PMS5003;66627;29.424;-98.496;2024-01-25T01:00:05;15;15;
77515;PMS5003;66627;29.424;-98.496;2024-01-25T01:02:31;15;12;
77515;PMS5003;66627;29.424;-98.496;2024-01-25T01:04:56;17;13;
77515;PMS5003;66627;29.424;-98.496;2024-01-25T01:07:21;17;16;
77515;PMS5003;66627;29.424;-98.496;2024-01-25T01:09:47;16;14;
77515;PMS5003;66627;29.424;-98.496;2024-01-25T01:12:12;16;13;
77515;PMS5003;66627;29.424;-98.496;2024-01-25T01:14:36;13;12;
77515;PMS5003;66627;29.424;-98.496;2024-01-25T01:17:03;17;15;
77515;PMS5003;66627;29.424;-98.496;2024-01-25T01:19:27;13;12;
77515;PMS5003;66627;29.424;-98.496;2024-01-25T01:21:53;11;11;
77515;PMS5003;66627;29.424;-98.496;2024-01-25T01:24:19;18;15;
77515;PMS5003;66627;29.424;-98.496;2024-01-25T01:26:48;22;16;
77515;PMS5003;66627;29.424;-98.496;2024-01-25T01:29:10;12;12;
77515;PMS5003;66627;29.424;-98.496;2024-01-25T01:31:34;14;13;
77515;PMS5003;66627;29.424;-98.496;2024-01-25T01:34:00;12;12;
77515;PMS5003;66627;29.424;-98.496;2024-01-25T01:36:24;11;11;
77515;PMS5003;66627;29.424;-98.496;2024-01-25T01:38:51;14;11;
77515;PMS5003;66627;29.424;-98.496;2024-01-25T01:41:16;11;11;
77515;PMS5003;66627;29.424;-98.496;2024-01-25T01:43:42;11;10;
77515;PMS5003;66627;29.424;-98.496;2024-01-25T01:46:09;12;9;
77515;PMS5003;66627;29.424;-98.496;2024-01-25T01:48:32;12;9;
77515;PMS5003;66627;29.424;-98.496;2024-01-25T01:50:58;13;11;
77515;PMS5003;66627;29.424;-98.496;2024-01-25T01:53:23;16;13;
77515;PMS5003;66627;29.424;-98.496;2024-01-25T01:55:49;14;12;
77515;PMS5003;66627;29.424;-98.496;2024-01-25T01:58:13;11;11;
77515;PMS5003;66627;29.424;-98.496;2024-01-25T02:00:40;15;13;
77515;PMS5003;66627;29.424;-98.496;2024-01-25T02:03:06;18;17;
77515;PMS5003;66627;29.424;-98.496;2024-01-25T02:05:30;10;10;
77515;PMS5003;66627;29.424;-98.496;2024-01-25T02:07:56;13;12;
77515;PMS5003;66627;29.424;-98.496;2024-01-25T02:10:20;15;9;
77515;PMS5003;66627;29.424;-98.496;2024-01-25T02:12:46;17;16;
77515;PMS5003;66627;29.424;-98.496;2024-01-25T02:15:11;20;20;
77515;PMS5003;66627;29.424;-98.496;2024-01-25T02:17:39;10;9;
77515;PMS5003;66627;29.424;-98.496;2024-01-25T02:20:03;8;8;
77515;PMS5003;66627;29.424;-98.496;2024-01-25T02:22:28;8;8;
77515;PMS5003;66627;29.424;-98.496;2024-01-25T02:24:54;8;7;
77515;PMS5003;66627;29.424;-98.496;2024-01-25T02:27:19;4;4;
77515;PMS5003;66627;29.424;-98.496;2024-01-25T02:29:44;5;5;
77515;PMS5003;66627;29.424;-98.496;2024-01-25T02:32:10;4;4;
77515;PMS5003;66627;29.424;-98.496;2024-01-25T02:34:34;4;3;
77515;PMS5003;66627;29.424;-98.496;2024-01-25T02:36:59;4;4;
77515;PMS5003;66627;29.424;-98.496;2024-01-25T02:39:25;5;5;
77515;PMS5003;66627;29.424;-98.496;2024-01-25T02:41:50;4;4;
77515;PMS5003;66627;29.424;-98.496;2024-01-25T02:44:15;6;4;
77515;PMS5003;66627;29.424;-98.496;2024-01-25T02:46:40;5;5;
77515;PMS5003;66627;29.424;-98.496;2024-01-25T02:49:05;3;3;
77515;PMS5003;66627;29.424;-98.496;2024-01-25T02:51:30;4;4;
77515;PMS5003;66627;29.424;-98.496;2024-01-25T02:53:56;7;4;
77515;PMS5003;66627;29.424;-98.496;2024-01-25T02:56:21;2;2;
77515;PMS5003;66627;29.424;-98.496;2024-01-25T02:58:46;3;3;
77515;PMS5003;66627;29.424;-98.496;2024-01-25T03:01:11;5;5;
77515;PMS5003;66627;29.424;-98.496;2024-01-25T03:03:36;5;4;
77515;PMS5003;66627;29.424;-98.496;2024-01-25T03:06:02;5;5;
77515;PMS5003;66627;29.424;-98.496;2024-01-25T03:08:26;2;2;
77515;PMS5003;66627;29.424;-98.496;2024-01-25T03:10:51;6;6;
77515;PMS5003;66627;29.424;-98.496;2024-01-25T03:13:17;4;4;
77515;PMS5003;66627;29.424;-98.496;2024-01-25T03:15:42;4;4;
77515;PMS5003;66627;29.424;-98.496;2024-01-25T03:18:08;4;4;
77515;PMS5003;66627;29.424;-98.496;2024-01-25T03:20:32;4;4;
77515;PMS5003;66627;29.424;-98.496;2024-01-25T03:22:57;5;5;
77515;PMS5003;66627;29.424;-98.496;2024-01-25T03:25:23;4;4;
77515;PMS5003;66627;29.424;-98.496;2024-01-25T03:27:48;5;3;
77515;PMS5003;66627;29.424;-98.496;2024-01-25T03:30:14;3;3;
77515;PMS5003;66627;29.424;-98.496;2024-01-25T03:32:38;6;5;
77515;PMS5003;66627;29.424;-98.496;2024-01-25T03:35:04;1;1;
77515;PMS5003;66627;29.424;-98.496;2024-01-25T03:37:29;6;6;
77515;PMS5003;66627;29.424;-98.496;2024-01-25T03:39:55;2;2;
77515;PMS5003;66627;29.424;-98.496;2024-01-25T03:42:20;2;2;
77515;PMS5003;66627;29.424;-98.496;2024-01-25T03:44:45;3;3;
77515;PMS5003;66627;29.424;-98.496;2024-01-25T03:47:10;3;3;
77515;PMS5003;66627;29.424;-98.496;2024-01-25T03:49:35;1;1;
77515;PMS5003;66627;29.424;-98.496;2024-01-25T03:52:01;2;2;
77515;PMS5003;66627;29.424;-98.496;2024-01-25T03:54:25;1;1;
77515;PMS5003;66627;29.424;-98.496;2024-01-25T03:56:51;3;3;
77515;PMS5003;66627;29.424;-98.496;2024-01-25T03:59:16;2;2;
77515;PMS5003;66627;29.424;-98.496;2024-01-25T04:01:41;3;3;
77515;PMS5003;66627;29.424;-98.496;2024-01-25T04:04:06;3;3;
77515;PMS5003;66627;29.424;-98.496;2024-01-25T04:06:32;1;1;
77515;PMS5003;66627;29.424;-98.496;2024-01-25T04:08:57;3;3;
77515;PMS5003;66627;29.424;-98.496;2024-01-25T04:11:22;2;2;
77515;PMS5003;66627;29.424;-98.496;2024-01-25T04:13:47;2;2;
77515;PMS5003;66627;29.424;-98.496;2024-01-25T04:16:14;1;1;
77515;PMS5003;66627;29.424;-98.496;2024-01-25T04:18:38;4;4;
77515;PMS5003;66627;29.424;-98.496;2024-01-25T04:21:03;6;4;
77515;PMS5003;66627;29.424;-98.496;2024-01-25T04:23:27;4;3;
77515;PMS5003;66627;29.424;-98.496;2024-01-25T04:25:53;3;3;
77515;PMS5003;66627;29.424;-98.496;2024-01-25T04:28:18;6;5;
77515;PMS5003;66627;29.424;-98.496;2024-01-25T04:30:43;3;3;
77515;PMS5003;66627;29.424;-98.496;2024-01-25T04:33:08;3;3;
77515;PMS5003;66627;29.424;-98.496;2024-01-25T04:35:34;2;2;
77515;PMS5003;66627;29.424;-98.496;2024-01-25T04:37:58;3;3;
77515;PMS5003;66627;29.424;-98.496;2024-01-25T04:40:24;4;2;
77515;PMS5003;66627;29.424;-98.496;2024-01-25T04:42:49;3;2;
77515;PMS5003;66627;29.424;-98.496;2024-01-25T04:45:15;2;2;
77515;PMS5003;66627;29.424;-98.496;2024-01-25T04:47:40;4;4;
77515;PMS5003;66627;29.424;-98.496;2024-01-25T04:50:06;4;3;
77515;PMS5003;66627;29.424;-98.496;2024-01-25T04:52:31;5;3;
77515;PMS5003;66627;29.424;-98.496;2024-01-25T04:54:56;3;3;
77515;PMS5003;66627;29.424;-98.496;2024-01-25T04:57:20;3;2;
77515;PMS5003;66627;29.424;-98.496;2024-01-25T04:59:46;4;2;
77515;PMS5003;66627;29.424;-98.496;2024-01-25T05:02:11;3;3;
77515;PMS5003;66627;29.424;-98.496;2024-01-25T05:04:36;4;4;
77515;PMS5003;66627;29.424;-98.496;2024-01-25T05:07:01;3;3;
77515;PMS5003;66627;29.424;-98.496;2024-01-25T05:09:26;5;4;
77515;PMS5003;66627;29.424;-98.496;2024-01-25T05:11:51;1;1;
77515;PMS5003;66627;29.424;-98.496;2024-01-25T05:14:17;2;2;
77515;PMS5003;66627;29.424;-98.496;2024-01-25T05:16:43;5;4;
77515;PMS5003;66627;29.424;-98.496;2024-01-25T05:19:07;4;4;
77515;PMS5003;66627;29.424;-98.496;2024-01-25T05:21:33;5;5;
77515;PMS5003;66627;29.424;-98.496;2024-01-25T05:23:59;4;4;
77515;PMS5003;66627;29.424;-98.496;2024-01-25T05:26:23;3;3;
77515;PMS5003;66627;29.424;-98.496;2024-01-25T05:28:49;2;2;
77515;PMS5003;66627;29.424;-98.496;2024-01-25T05:31:13;4;4;
77515;PMS5003;66627;29.424;-98.496;2024-01-25T05:33:39;6;4;
77515;PMS5003;66627;29.424;-98.496;2024-01-25T05:36:04;5;4;
77515;PMS5003;66627;29.424;-98.496;2024-01-25T05:38:29;3;3;
77515;PMS5003;66627;29.424;-98.496;2024-01-25T05:40:54;5;4;
77515;PMS5003;66627;29.424;-98.496;2024-01-25T05:43:19;6;5;
77515;PMS5003;66627;29.424;-98.496;2024-01-25T05:45:45;6;5;
77515;PMS5003;66627;29.424;-98.496;2024-01-25T05:48:10;8;5;
77515;PMS5003;66627;29.424;-98.496;2024-01-25T05:50:35;9;7;
77515;PMS5003;66627;29.424;-98.496;2024-01-25T05:53:00;5;5;
77515;PMS5003;66627;29.424;-98.496;2024-01-25T05:55:26;7;7;
77515;PMS5003;66627;29.424;-98.496;2024-01-25T05:57:50;5;5;
77515;PMS5003;66627;29.424;-98.496;2024-01-25T06:00:16;5;4;
77515;PMS5003;66627;29.424;-98.496;2024-01-25T06:02:41;6;5;
77515;PMS5003;66627;29.424;-98.496;2024-01-25T06:05:07;5;5;
77515;PMS5003;66627;29.424;-98.496;2024-01-25T06:07:31;6;6;
77515;PMS5003;66627;29.424;-98.496;2024-01-25T06:09:56;7;7;
77515;PMS5003;66627;29.424;-98.496;2024-01-25T06:12:21;8;8;
77515;PMS5003;66627;29.424;-98.496;2024-01-25T06:14:46;5;5;
77515;PMS5003;66627;29.424;-98.496;2024-01-25T06:17:12;6;6;
77515;PMS5003;66627;29.424;-98.496;2024-01-25T06:19:37;6;6;
77515;PMS5003;66627;29.424;-98.496;2024-01-25T06:22:03;6;6;
77515;PMS5003;66627;29.424;-98.496;2024-01-25T06:24:28;5;5;
77515;PMS5003;66627;29.424;-98.496;2024-01-25T06:26:53;8;7;
77515;PMS5003;66627;29.424;-98.496;2024-01-25T06:29:18;5;5;
77515;PMS5003;66627;29.424;-98.496;2024-01-25T06:31:43;5;5;
77515;PMS5003;66627;29.424;-98.496;2024-01-25T06:34:09;6;6;
77515;PMS5003;66627;29.424;-98.496;2024-01-25T06:36:33;5;4;
77515;PMS5003;66627;29.424;-98.496;2024-01-25T06:38:59;4;3;
77515;PMS5003;66627;29.424;-98.496;2024-01-25T06:41:24;8;5;
77515;PMS5003;66627;29.424;-98.496;2024-01-25T06:43:49;2;2;
77515;PMS5003;66627;29.424;-98.496;2024-01-25T06:46:14;6;4;
77515;PMS5003;66627;29.424;-98.496;2024-01-25T06:48:39;5;5;
77515;PMS5003;66627;29.424;-98.496;2024-01-25T06:51:05;5;5;
77515;PMS5003;66627;29.424;-98.496;2024-01-25T06:53:30;5;5;
77515;PMS5003;66627;29.424;-98.496;2024-01-25T06:55:56;4;4;
77515;PMS5003;66627;29.424;-98.496;2024-01-25T06:58:20;3;3;
77515;PMS5003;66627;29.424;-98.496;2024-01-25T07:00:46;3;3;
77515;PMS5003;66627;29.424;-98.496;2024-01-25T07:03:11;3;3;
77515;PMS5003;66627;29.424;-98.496;2024-01-25T07:05:36;4;4;
77515;PMS5003;66627;29.424;-98.496;2024-01-25T07:08:01;5;5;
77515;PMS5003;66627;29.424;-98.496;2024-01-25T07:10:26;4;4;
77515;PMS5003;66627;29.424;-98.496;2024-01-25T07:12:52;4;4;
77515;PMS5003;66627;29.424;-98.496;2024-01-25T07:15:16;4;4;
77515;PMS5003;66627;29.424;-98.496;2024-01-25T07:17:42;3;3;
77515;PMS5003;66627;29.424;-98.496;2024-01-25T07:20:07;4;4;
77515;PMS5003;66627;29.424;-98.496;2024-01-25T07:22:32;3;3;
77515;PMS5003;66627;29.424;-98.496;2024-01-25T07:24:57;4;4;
77515;PMS5003;66627;29.424;-98.496;2024-01-25T07:27:22;4;4;
77515;PMS5003;66627;29.424;-98.496;2024-01-25T07:29:47;5;5;
77515;PMS5003;66627;29.424;-98.496;2024-01-25T07:32:12;2;2;
77515;PMS5003;66627;29.424;-98.496;2024-01-25T07:34:38;6;4;
77515;PMS5003;66627;29.424;-98.496;2024-01-25T07:37:03;6;5;
77515;PMS5003;66627;29.424;-98.496;2024-01-25T07:39:28;4;4;
77515;PMS5003;66627;29.424;-98.496;2024-01-25T07:41:54;5;5;
77515;PMS5003;66627;29.424;-98.496;2024-01-25T07:44:19;6;5;
77515;PMS5003;66627;29.424;-98.496;2024-01-25T07:46:44;5;5;
77515;PMS5003;66627;29.424;-98.496;2024-01-25T07:49:09;5;4;
77515;PMS5003;66627;29.424;-98.496;2024-01-25T07:51:34;6;6;
77515;PMS5003;66627;29.424;-98.496;2024-01-25T07:54:00;5;3;
77515;PMS5003;66627;29.424;-98.496;2024-01-25T07:56:25;6;6;
77515;PMS5003;66627;29.424;-98.496;2024-01-25T07:58:50;9;7;
77515;PMS5003;66627;29.424;-98.496;2024-01-25T08:01:17;5;5;
77515;PMS5003;66627;29.424;-98.496;2024-01-25T08:03:40;4;4;
77515;PMS5003;66627;29.424;-98.496;2024-01-25T08:06:06;6;5;
77515;PMS5003;66627;29.424;-98.496;2024-01-25T08:08:31;5;4;
77515;PMS5003;66627;29.424;-98.496;2024-01-25T08:10:56;8;5;
77515;PMS5003;66627;29.424;-98.496;2024-01-25T08:13:23;4;4;
77515;PMS5003;66627;29.424;-98.496;2024-01-25T08:15:46;7;7;
77515;PMS5003;66627;29.424;-98.496;2024-01-25T08:18:12;5;5;
77515;PMS5003;66627;29.424;-98.496;2024-01-25T08:20:37;7;6;
77515;PMS5003;66627;29.424;-98.496;2024-01-25T08:23:03;7;7;
77515;PMS5003;66627;29.424;-98.496;2024-01-25T08:25:28;4;4;
77515;PMS5003;66627;29.424;-98.496;2024-01-25T08:27:53;7;7;
77515;PMS5003;66627;29.424;-98.496;2024-01-25T08:30:19;6;6;
77515;PMS5003;66627;29.424;-98.496;2024-01-25T08:32:44;8;8;
77515;PMS5003;66627;29.424;-98.496;2024-01-25T08:35:09;7;6;
77515;PMS5003;66627;29.424;-98.496;2024-01-25T08:37:35;7;7;
77515;PMS5003;66627;29.424;-98.496;2024-01-25T08:40:00;6;4;
77515;PMS5003;66627;29.424;-98.496;2024-01-25T08:42:26;8;8;
77515;PMS5003;66627;29.424;-98.496;2024-01-25T08:44:51;5;5;
77515;PMS5003;66627;29.424;-98.496;2024-01-25T08:47:16;6;6;
77515;PMS5003;66627;29.424;-98.496;2024-01-25T08:49:41;9;6;
77515;PMS5003;66627;29.424;-98.496;2024-01-25T08:52:08;8;6;
77515;PMS5003;66627;29.424;-98.496;2024-01-25T08:54:33;9;8;
77515;PMS5003;66627;29.424;-98.496;2024-01-25T08:56:58;7;5;
77515;PMS5003;66627;29.424;-98.496;2024-01-25T08:59:24;7;6;
77515;PMS5003;66627;29.424;-98.496;2024-01-25T09:01:48;8;8;
77515;PMS5003;66627;29.424;-98.496;2024-01-25T09:04:13;5;5;
77515;PMS5003;66627;29.424;-98.496;2024-01-25T09:06:38;8;6;
77515;PMS5003;66627;29.424;-98.496;2024-01-25T09:09:04;10;7;
77515;PMS5003;66627;29.424;-98.496;2024-01-25T09:11:28;7;6;
77515;PMS5003;66627;29.424;-98.496;2024-01-25T09:13:54;8;7;
77515;PMS5003;66627;29.424;-98.496;2024-01-25T09:16:20;7;7;
77515;PMS5003;66627;29.424;-98.496;2024-01-25T09:18:44;6;6;
77515;PMS5003;66627;29.424;-98.496;2024-01-25T09:21:09;4;4;
77515;PMS5003;66627;29.424;-98.496;2024-01-25T09:23:34;6;6;
77515;PMS5003;66627;29.424;-98.496;2024-01-25T09:26:00;5;5;
77515;PMS5003;66627;29.424;-98.496;2024-01-25T09:28:26;5;3;
77515;PMS5003;66627;29.424;-98.496;2024-01-25T09:30:50;5;5;
77515;PMS5003;66627;29.424;-98.496;2024-01-25T09:33:15;4;4;
77515;PMS5003;66627;29.424;-98.496;2024-01-25T09:35:40;6;6;
77515;PMS5003;66627;29.424;-98.496;2024-01-25T09:38:06;6;5;
77515;PMS5003;66627;29.424;-98.496;2024-01-25T09:40:32;3;3;
77515;PMS5003;66627;29.424;-98.496;2024-01-25T09:42:56;7;6;
77515;PMS5003;66627;29.424;-98.496;2024-01-25T09:45:22;5;5;
77515;PMS5003;66627;29.424;-98.496;2024-01-25T09:47:48;5;5;
77515;PMS5003;66627;29.424;-98.496;2024-01-25T09:50:13;4;4;
77515;PMS5003;66627;29.424;-98.496;2024-01-25T09:52:37;5;5;
77515;PMS5003;66627;29.424;-98.496;2024-01-25T09:55:04;7;5;
77515;PMS5003;66627;29.424;-98.496;2024-01-25T09:57:29;3;3;
77515;PMS5003;66627;29.424;-98.496;2024-01-25T09:59:54;5;5;
77515;PMS5003;66627;29.424;-98.496;2024-01-25T10:02:18;7;7;
77515;PMS5003;66627;29.424;-98.496;2024-01-25T10:04:46;8;6;
77515;PMS5003;66627;29.424;-98.496;2024-01-25T10:07:08;8;5;
77515;PMS5003;66627;29.424;-98.496;2024-01-25T10:09:38;5;5;
77515;PMS5003;66627;29.424;-98.496;2024-01-25T10:11:59;4;4;
77515;PMS5003;66627;29.424;-98.496;2024-01-25T10:14:24;6;6;
77515;PMS5003;66627;29.424;-98.496;2024-01-25T10:16:50;4;4;
77515;PMS5003;66627;29.424;-98.496;2024-01-25T10:19:15;4;4;
77515;PMS5003;66627;29.424;-98.496;2024-01-25T10:21:41;5;5;
77515;PMS5003;66627;29.424;-98.496;2024-01-25T10:24:05;4;4;
77515;PMS5003;66627;29.424;-98.496;2024-01-25T10:26:31;6;5;
77515;PMS5003;66627;29.424;-98.496;2024-01-25T10:28:56;4;4;
77515;PMS5003;66627;29.424;-98.496;2024-01-25T10:31:23;3;3;
77515;PMS5003;66627;29.424;-98.496;2024-01-25T10:33:47;5;5;
77515;PMS5003;66627;29.424;-98.496;2024-01-25T10:36:12;5;4;
77515;PMS5003;66627;29.424;-98.496;2024-01-25T10:38:37;4;4;
77515;PMS5003;66627;29.424;-98.496;2024-01-25T10:41:03;4;2;
77515;PMS5003;66627;29.424;-98.496;2024-01-25T10:43:28;5;5;
77515;PMS5003;66627;29.424;-98.496;2024-01-25T10:45:53;5;5;
77515;PMS5003;66627;29.424;-98.496;2024-01-25T10:48:18;5;5;
77515;PMS5003;66627;29.424;-98.496;2024-01-25T10:50:43;5;5;
77515;PMS5003;66627;29.424;-98.496;2024-01-25T10:53:10;5;5;
77515;PMS5003;66627;29.424;-98.496;2024-01-25T10:55:34;5;4;
77515;PMS5003;66627;29.424;-98.496;2024-01-25T10:57:59;5;5;
77515;PMS5003;66627;29.424;-98.496;2024-01-25T11:00:26;4;4;
77515;PMS5003;66627;29.424;-98.496;2024-01-25T11:02:51;5;5;
77515;PMS5003;66627;29.424;-98.496;2024-01-25T11:05:15;3;3;
77515;PMS5003;66627;29.424;-98.496;2024-01-25T11:07:41;5;5;
77515;PMS5003;66627;29.424;-98.496;2024-01-25T11:10:06;4;4;
77515;PMS5003;66627;29.424;-98.496;2024-01-25T11:12:31;5;5;
77515;PMS5003;66627;29.424;-98.496;2024-01-25T11:14:56;6;5;
77515;PMS5003;66627;29.424;-98.496;2024-01-25T11:17:22;5;5;
77515;PMS5003;66627;29.424;-98.496;2024-01-25T11:19:48;4;4;
77515;PMS5003;66627;29.424;-98.496;2024-01-25T11:22:12;5;5;
77515;PMS5003;66627;29.424;-98.496;2024-01-25T11:24:38;7;6;
77515;PMS5003;66627;29.424;-98.496;2024-01-25T11:27:02;3;3;
77515;PMS5003;66627;29.424;-98.496;2024-01-25T11:29:27;7;7;
77515;PMS5003;66627;29.424;-98.496;2024-01-25T11:31:54;6;5;
77515;PMS5003;66627;29.424;-98.496;2024-01-25T11:34:19;5;5;
77515;PMS5003;66627;29.424;-98.496;2024-01-25T11:36:44;6;5;
77515;PMS5003;66627;29.424;-98.496;2024-01-25T11:39:09;5;5;
77515;PMS5003;66627;29.424;-98.496;2024-01-25T11:41:34;5;5;
77515;PMS5003;66627;29.424;-98.496;2024-01-25T11:44:01;3;3;
77515;PMS5003;66627;29.424;-98.496;2024-01-25T11:46:25;7;6;
77515;PMS5003;66627;29.424;-98.496;2024-01-25T11:48:50;5;5;
77515;PMS5003;66627;29.424;-98.496;2024-01-25T11:51:15;4;4;
77515;PMS5003;66627;29.424;-98.496;2024-01-25T11:53:41;6;5;
77515;PMS5003;66627;29.424;-98.496;2024-01-25T11:56:08;6;6;
77515;PMS5003;66627;29.424;-98.496;2024-01-25T11:58:31;5;5;
77515;PMS5003;66627;29.424;-98.496;2024-01-25T12:00:57;4;4;
77515;PMS5003;66627;29.424;-98.496;2024-01-25T12:03:22;5;5;
77515;PMS5003;66627;29.424;-98.496;2024-01-25T12:05:47;4;4;
77515;PMS5003;66627;29.424;-98.496;2024-01-25T12:08:13;4;4;
77515;PMS5003;66627;29.424;-98.496;2024-01-25T12:10:37;5;5;
77515;PMS5003;66627;29.424;-98.496;2024-01-25T12:13:03;3;3;
77515;PMS5003;66627;29.424;-98.496;2024-01-25T12:15:28;6;5;
77515;PMS5003;66627;29.424;-98.496;2024-01-25T12:17:53;5;5;
77515;PMS5003;66627;29.424;-98.496;2024-01-25T12:20:18;7;6;
77515;PMS5003;66627;29.424;-98.496;2024-01-25T12:22:43;9;7;
77515;PMS5003;66627;29.424;-98.496;2024-01-25T12:25:10;5;5;
77515;PMS5003;66627;29.424;-98.496;2024-01-25T12:27:34;6;6;
77515;PMS5003;66627;29.424;-98.496;2024-01-25T12:29:59;5;5;
77515;PMS5003;66627;29.424;-98.496;2024-01-25T12:32:25;4;4;
77515;PMS5003;66627;29.424;-98.496;2024-01-25T12:34:54;5;5;
77515;PMS5003;66627;29.424;-98.496;2024-01-25T12:37:16;4;4;
77515;PMS5003;66627;29.424;-98.496;2024-01-25T12:39:41;7;7;
77515;PMS5003;66627;29.424;-98.496;2024-01-25T12:42:06;6;6;
77515;PMS5003;66627;29.424;-98.496;2024-01-25T12:44:32;7;7;
77515;PMS5003;66627;29.424;-98.496;2024-01-25T12:46:57;5;5;
77515;PMS5003;66627;29.424;-98.496;2024-01-25T12:49:21;9;7;
77515;PMS5003;66627;29.424;-98.496;2024-01-25T12:51:47;6;6;
77515;PMS5003;66627;29.424;-98.496;2024-01-25T12:54:13;3;3;
77515;PMS5003;66627;29.424;-98.496;2024-01-25T12:56:38;4;4;
77515;PMS5003;66627;29.424;-98.496;2024-01-25T12:59:03;6;5;
77515;PMS5003;66627;29.424;-98.496;2024-01-25T13:01:29;6;6;
77515;PMS5003;66627;29.424;-98.496;2024-01-25T13:03:54;7;5;
77515;PMS5003;66627;29.424;-98.496;2024-01-25T13:06:19;7;6;
77515;PMS5003;66627;29.424;-98.496;2024-01-25T13:08:43;9;7;
77515;PMS5003;66627;29.424;-98.496;2024-01-25T13:11:09;6;6;
77515;PMS5003;66627;29.424;-98.496;2024-01-25T13:13:34;6;6;
77515;PMS5003;66627;29.424;-98.496;2024-01-25T13:15:59;6;6;
77515;PMS5003;66627;29.424;-98.496;2024-01-25T13:18:24;7;7;
77515;PMS5003;66627;29.424;-98.496;2024-01-25T13:20:50;5;5;
77515;PMS5003;66627;29.424;-98.496;2024-01-25T13:23:15;4;4;
77515;PMS5003;66627;29.424;-98.496;2024-01-25T13:25:40;7;7;
77515;PMS5003;66627;29.424;-98.496;2024-01-25T13:28:05;5;5;
77515;PMS5003;66627;29.424;-98.496;2024-01-25T13:30:32;7;7;
77515;PMS5003;66627;29.424;-98.496;2024-01-25T13:32:56;5;5;
77515;PMS5003;66627;29.424;-98.496;2024-01-25T13:35:22;8;8;
77515;PMS5003;66627;29.424;-98.496;2024-01-25T13:37:48;5;5;
77515;PMS5003;66627;29.424;-98.496;2024-01-25T13:40:14;6;6;
77515;PMS5003;66627;29.424;-98.496;2024-01-25T13:42:39;8;7;
77515;PMS5003;66627;29.424;-98.496;2024-01-25T13:45:05;6;6;
77515;PMS5003;66627;29.424;-98.496;2024-01-25T13:47:29;8;7;
77515;PMS5003;66627;29.424;-98.496;2024-01-25T13:49:55;6;6;
77515;PMS5003;66627;29.424;-98.496;2024-01-25T13:52:20;9;9;
77515;PMS5003;66627;29.424;-98.496;2024-01-25T13:54:46;8;6;
77515;PMS5003;66627;29.424;-98.496;2024-01-25T13:57:11;8;8;
77515;PMS5003;66627;29.424;-98.496;2024-01-25T13:59:37;5;5;
77515;PMS5003;66627;29.424;-98.496;2024-01-25T14:02:02;7;7;
77515;PMS5003;66627;29.424;-98.496;2024-01-25T14:04:28;5;5;
77515;PMS5003;66627;29.424;-98.496;2024-01-25T14:06:53;11;10;
77515;PMS5003;66627;29.424;-98.496;2024-01-25T14:09:18;8;8;
77515;PMS5003;66627;29.424;-98.496;2024-01-25T14:11:44;7;7;
77515;PMS5003;66627;29.424;-98.496;2024-01-25T14:14:09;8;8;
77515;PMS5003;66627;29.424;-98.496;2024-01-25T14:16:36;9;9;
77515;PMS5003;66627;29.424;-98.496;2024-01-25T14:19:00;9;8;
77515;PMS5003;66627;29.424;-98.496;2024-01-25T14:21:25;8;8;
77515;PMS5003;66627;29.424;-98.496;2024-01-25T14:23:50;9;8;
77515;PMS5003;66627;29.424;-98.496;2024-01-25T14:26:16;5;5;
77515;PMS5003;66627;29.424;-98.496;2024-01-25T14:28:42;7;7;
77515;PMS5003;66627;29.424;-98.496;2024-01-25T14:31:08;11;10;
77515;PMS5003;66627;29.424;-98.496;2024-01-25T14:33:32;8;7;
77515;PMS5003;66627;29.424;-98.496;2024-01-25T14:35:59;6;6;
77515;PMS5003;66627;29.424;-98.496;2024-01-25T14:38:24;6;6;
77515;PMS5003;66627;29.424;-98.496;2024-01-25T14:40:49;8;8;
77515;PMS5003;66627;29.424;-98.496;2024-01-25T14:43:15;8;8;
77515;PMS5003;66627;29.424;-98.496;2024-01-25T14:45:39;12;10;
77515;PMS5003;66627;29.424;-98.496;2024-01-25T14:48:05;31;28;
77515;PMS5003;66627;29.424;-98.496;2024-01-25T14:50:32;31;27;
77515;PMS5003;66627;29.424;-98.496;2024-01-25T14:52:56;25;23;
77515;PMS5003;66627;29.424;-98.496;2024-01-25T14:55:22;14;14;
77515;PMS5003;66627;29.424;-98.496;2024-01-25T14:57:47;13;12;
77515;PMS5003;66627;29.424;-98.496;2024-01-25T15:00:13;15;12;
77515;PMS5003;66627;29.424;-98.496;2024-01-25T15:02:38;7;7;
77515;PMS5003;66627;29.424;-98.496;2024-01-25T15:05:03;7;6;
77515;PMS5003;66627;29.424;-98.496;2024-01-25T15:07:27;7;6;
77515;PMS5003;66627;29.424;-98.496;2024-01-25T15:09:53;5;5;
77515;PMS5003;66627;29.424;-98.496;2024-01-25T15:12:18;7;7;
77515;PMS5003;66627;29.424;-98.496;2024-01-25T15:14:44;5;5;
77515;PMS5003;66627;29.424;-98.496;2024-01-25T15:17:09;5;5;
77515;PMS5003;66627;29.424;-98.496;2024-01-25T15:19:35;5;5;
77515;PMS5003;66627;29.424;-98.496;2024-01-25T15:21:59;5;4;
77515;PMS5003;66627;29.424;-98.496;2024-01-25T15:24:24;4;4;
77515;PMS5003;66627;29.424;-98.496;2024-01-25T15:26:50;5;4;
77515;PMS5003;66627;29.424;-98.496;2024-01-25T15:29:14;4;4;
77515;PMS5003;66627;29.424;-98.496;2024-01-25T15:31:40;5;5;
77515;PMS5003;66627;29.424;-98.496;2024-01-25T15:34:06;3;3;
77515;PMS5003;66627;29.424;-98.496;2024-01-25T15:36:30;4;3;
77515;PMS5003;66627;29.424;-98.496;2024-01-25T15:38:55;3;3;
77515;PMS5003;66627;29.424;-98.496;2024-01-25T15:41:20;3;3;
77515;PMS5003;66627;29.424;-98.496;2024-01-25T15:43:46;3;3;
77515;PMS5003;66627;29.424;-98.496;2024-01-25T15:46:10;6;4;
77515;PMS5003;66627;29.424;-98.496;2024-01-25T15:48:36;5;5;
77515;PMS5003;66627;29.424;-98.496;2024-01-25T15:51:01;4;4;
77515;PMS5003;66627;29.424;-98.496;2024-01-25T15:53:26;3;3;
77515;PMS5003;66627;29.424;-98.496;2024-01-25T15:55:51;5;5;
77515;PMS5003;66627;29.424;-98.496;2024-01-25T15:58:16;7;6;